createdAt,value
2023-03-21T00:00:59.452Z,100444.03
2023-03-21T00:04:02.486Z,100440.06
2023-03-21T00:07:04.962Z,100438.00
2023-03-21T00:10:15.384Z,100439.63
2023-03-21T00:13:20.505Z,100434.16
2023-03-21T00:16:33.168Z,100428.38
2023-03-21T00:19:38.545Z,100431.44
2023-03-21T00:22:42.009Z,100431.69
2023-03-21T00:25:44.293Z,100432.63
2023-03-21T00:28:46.983Z,100428.41
2023-03-21T00:31:49.409Z,100424.69
2023-03-21T00:35:13.681Z,100416.94
2023-03-21T00:38:15.360Z,100415.44
2023-03-21T00:41:31.678Z,100411.38
2023-03-21T00:44:40.244Z,100411.69
2023-03-21T00:47:43.629Z,100411.00
2023-03-21T00:50:47.883Z,100407.59
2023-03-21T00:53:50.539Z,100411.31
2023-03-21T00:56:53.079Z,100410.28
2023-03-21T00:59:58.160Z,100405.06
2023-03-21T01:03:14.523Z,100408.69
2023-03-21T01:06:27.360Z,100405.06
2023-03-21T01:09:29.732Z,100401.53
2023-03-21T01:12:33.588Z,100402.56
2023-03-21T01:15:43.599Z,100393.03
2023-03-21T01:18:46.579Z,100397.38
2023-03-21T01:21:49.045Z,100398.38
2023-03-21T01:24:58.656Z,100403.00
2023-03-21T01:28:05.793Z,100397.06
2023-03-21T01:31:09.722Z,100400.47
2023-03-21T01:34:12.333Z,100388.28
2023-03-21T01:37:15.014Z,100390.00
2023-03-21T01:40:19.656Z,100395.22
2023-03-21T01:43:25.597Z,100396.94
2023-03-21T01:46:32.288Z,100395.78
2023-03-21T01:49:46.435Z,100389.78
2023-03-21T01:52:50.198Z,100401.78
2023-03-21T01:55:53.851Z,100392.16
2023-03-21T01:59:03.096Z,100393.91
2023-03-21T02:02:09.904Z,100392.16
2023-03-21T02:05:13.295Z,100397.50
2023-03-21T02:08:16.454Z,100397.38
2023-03-21T02:11:19.308Z,100391.28
2023-03-21T02:14:28.912Z,100390.50
2023-03-21T02:17:33.391Z,100386.09
2023-03-21T02:20:54.432Z,100388.63
2023-03-21T02:24:12.092Z,100384.38
2023-03-21T02:27:14.418Z,100382.87
2023-03-21T02:30:37.407Z,100389.78
2023-03-21T02:34:04.379Z,100382.56
2023-03-21T02:37:07.437Z,100382.53
2023-03-21T02:40:28.592Z,100389.53
2023-03-21T02:43:51.758Z,100386.19
2023-03-21T02:47:06.877Z,100402.06
2023-03-21T02:50:13.788Z,100389.69
2023-03-21T02:53:18.563Z,100392.87
2023-03-21T02:56:22.718Z,100396.41
2023-03-21T02:59:29.043Z,100397.50
2023-03-21T03:02:32.384Z,100401.78
2023-03-21T03:05:37.293Z,100395.16
2023-03-21T03:09:01.105Z,100400.75
2023-03-21T03:12:11.590Z,100399.03
2023-03-21T03:15:36.095Z,100403.66
2023-03-21T03:18:39.852Z,100401.16
2023-03-21T03:21:44.525Z,100407.34
2023-03-21T03:24:56.148Z,100398.81
2023-03-21T03:27:59.027Z,100393.06
2023-03-21T03:31:09.258Z,100398.34
2023-03-21T03:34:15.279Z,100404.38
2023-03-21T03:37:21.790Z,100413.09
2023-03-21T03:40:26.870Z,100404.22
2023-03-21T03:43:43.740Z,100399.37
2023-03-21T03:46:51.208Z,100401.84
2023-03-21T03:50:01.367Z,100390.53
2023-03-21T03:53:18.543Z,100394.91
2023-03-21T03:56:22.420Z,100391.97
2023-03-21T03:59:25.990Z,100397.91
2023-03-21T04:02:30.292Z,100399.81
2023-03-21T04:05:33.322Z,100398.91
2023-03-21T04:08:37.655Z,100404.16
2023-03-21T04:11:40.645Z,100398.25
2023-03-21T04:14:46.027Z,100397.59
2023-03-21T04:17:50.837Z,100400.25
2023-03-21T04:20:53.410Z,100403.72
2023-03-21T04:23:56.295Z,100405.00
2023-03-21T04:26:58.800Z,100406.66
2023-03-21T04:30:02.614Z,100410.97
2023-03-21T04:33:06.320Z,100405.00
2023-03-21T04:36:09.530Z,100399.91
2023-03-21T04:39:13.661Z,100411.00
2023-03-21T04:42:18.570Z,100401.47
2023-03-21T04:45:20.868Z,100400.59
2023-03-21T04:48:24.570Z,100398.53
2023-03-21T04:51:27.313Z,100392.59
2023-03-21T04:54:30.084Z,100395.66
2023-03-21T04:57:32.525Z,100404.50
2023-03-21T05:00:39.083Z,100395.53
2023-03-21T05:03:41.854Z,100399.41
2023-03-21T05:06:45.903Z,100400.72
2023-03-21T05:09:48.283Z,100404.72
2023-03-21T05:12:52.426Z,100408.84
2023-03-21T05:15:55.469Z,100403.44
2023-03-21T05:19:05.069Z,100406.47
2023-03-21T05:22:09.951Z,100405.19
2023-03-21T05:25:13.729Z,100403.78
2023-03-21T05:28:20.602Z,100409.34
2023-03-21T05:31:24.151Z,100413.31
2023-03-21T05:34:28.266Z,100411.22
2023-03-21T05:37:31.139Z,100423.87
2023-03-21T05:40:34.038Z,100419.53
2023-03-21T05:43:37.706Z,100415.63
2023-03-21T05:46:40.343Z,100419.87
2023-03-21T05:49:44.344Z,100422.22
2023-03-21T05:52:46.829Z,100428.91
2023-03-21T05:55:49.494Z,100429.47
2023-03-21T05:58:53.588Z,100433.37
2023-03-21T06:01:57.403Z,100436.34
2023-03-21T06:05:00.728Z,100432.38
2023-03-21T06:08:03.178Z,100434.78
2023-03-21T06:11:07.045Z,100435.78
2023-03-21T06:14:10.832Z,100441.34
2023-03-21T06:17:13.705Z,100444.34
2023-03-21T06:20:16.592Z,100438.69
2023-03-21T06:23:19.649Z,100436.03
2023-03-21T06:26:23.393Z,100434.28
2023-03-21T06:29:26.786Z,100444.03
2023-03-21T06:32:29.387Z,100440.34
2023-03-21T06:35:32.534Z,100442.75
2023-03-21T06:38:38.003Z,100441.56
2023-03-21T06:41:41.628Z,100451.59
2023-03-21T06:44:44.065Z,100445.72
2023-03-21T06:47:47.358Z,100441.31
2023-03-21T06:50:51.014Z,100443.75
2023-03-21T06:53:54.561Z,100446.03
2023-03-21T06:56:57.365Z,100442.88
2023-03-21T07:00:01.543Z,100445.62
2023-03-21T07:03:04.034Z,100455.13
2023-03-21T07:06:08.643Z,100456.75
2023-03-21T07:09:11.153Z,100453.75
2023-03-21T07:12:13.901Z,100452.31
2023-03-21T07:15:17.537Z,100461.53
2023-03-21T07:18:20.599Z,100453.41
2023-03-21T07:21:23.636Z,100453.09
2023-03-21T07:24:27.400Z,100453.94
2023-03-21T07:27:29.707Z,100456.75
2023-03-21T07:30:32.579Z,100451.19
2023-03-21T07:33:38.192Z,100447.63
2023-03-21T07:36:40.860Z,100457.37
2023-03-21T07:39:43.371Z,100452.41
2023-03-21T07:42:48.513Z,100452.34
2023-03-21T07:45:59.690Z,100455.53
2023-03-21T07:49:02.975Z,100458.25
2023-03-21T07:52:06.817Z,100456.72
2023-03-21T07:55:09.843Z,100454.72
2023-03-21T07:58:12.288Z,100456.19
2023-03-21T08:01:14.945Z,100457.06
2023-03-21T08:04:17.753Z,100447.19
2023-03-21T08:07:20.064Z,100449.28
2023-03-21T08:10:23.100Z,100447.59
2023-03-21T08:13:26.151Z,100444.00
2023-03-21T08:16:29.024Z,100448.28
2023-03-21T08:19:31.451Z,100444.37
2023-03-21T08:22:35.924Z,100441.34
2023-03-21T08:25:38.930Z,100438.06
2023-03-21T08:28:41.923Z,100450.28
2023-03-21T08:31:44.821Z,100439.12
2023-03-21T08:34:47.435Z,100436.53
2023-03-21T08:37:49.916Z,100445.09
2023-03-21T08:40:52.588Z,100434.66
2023-03-21T08:43:55.022Z,100444.28
2023-03-21T08:46:57.897Z,100442.84
2023-03-21T08:50:00.642Z,100439.16
2023-03-21T08:53:03.440Z,100445.88
2023-03-21T08:56:06.358Z,100447.06
2023-03-21T08:59:10.192Z,100435.56
2023-03-21T09:02:16.237Z,100440.19
2023-03-21T09:05:19.955Z,100444.59
2023-03-21T09:08:23.498Z,100441.44
2023-03-21T09:11:26.170Z,100435.03
2023-03-21T09:14:29.330Z,100426.81
2023-03-21T09:17:32.915Z,100440.63
2023-03-21T09:20:38.421Z,100439.12
2023-03-21T09:23:41.697Z,100435.69
2023-03-21T09:26:44.667Z,100441.16
2023-03-21T09:29:47.463Z,100434.16
2023-03-21T09:32:50.457Z,100435.25
2023-03-21T09:35:53.844Z,100430.97
2023-03-21T09:38:57.241Z,100439.63
2023-03-21T09:42:07.626Z,100436.19
2023-03-21T09:45:18.067Z,100435.69
2023-03-21T09:48:30.264Z,100436.81
2023-03-21T09:51:35.805Z,100436.44
2023-03-21T09:54:40.673Z,100440.53
2023-03-21T09:57:43.993Z,100436.03
2023-03-21T10:00:49.793Z,100437.09
2023-03-21T10:03:54.444Z,100428.00
2023-03-21T10:06:59.386Z,100430.97
2023-03-21T10:10:04.408Z,100430.41
2023-03-21T10:13:13.883Z,100435.75
2023-03-21T10:16:19.881Z,100432.50
2023-03-21T10:19:23.386Z,100427.88
2023-03-21T10:22:25.977Z,100427.81
2023-03-21T10:25:32.084Z,100428.06
2023-03-21T10:28:52.448Z,100424.31
2023-03-21T10:31:55.919Z,100428.78
2023-03-21T10:34:59.237Z,100407.88
2023-03-21T10:38:01.652Z,100417.13
2023-03-21T10:41:04.365Z,100413.87
2023-03-21T10:44:14.736Z,100418.22
2023-03-21T10:47:21.600Z,100412.09
2023-03-21T10:50:29.506Z,100415.69
2023-03-21T10:53:35.072Z,100399.56
2023-03-21T10:56:57.749Z,100412.41
2023-03-21T11:00:02.473Z,100397.03
2023-03-21T11:03:07.092Z,100397.66
2023-03-21T11:06:15.280Z,100403.34
2023-03-21T11:09:20.334Z,100388.16
2023-03-21T11:12:30.736Z,100393.31
2023-03-21T11:15:48.969Z,100387.00
2023-03-21T11:18:56.610Z,100384.69
2023-03-21T11:22:00.062Z,100374.22
2023-03-21T11:25:06.459Z,100374.53
2023-03-21T11:28:12.340Z,100373.72
2023-03-21T11:31:17.211Z,100361.78
2023-03-21T11:34:53.284Z,100365.31
2023-03-21T11:37:56.722Z,100363.97
2023-03-21T11:41:02.786Z,100356.38
2023-03-21T11:44:05.582Z,100353.91
2023-03-21T11:47:09.338Z,100337.41
2023-03-21T11:50:15.701Z,100346.06
2023-03-21T11:53:18.250Z,100349.88
2023-03-21T11:56:37.488Z,100336.06
2023-03-21T12:00:04.553Z,100332.88
2023-03-21T12:03:30.755Z,100330.88
2023-03-21T12:06:42.760Z,100334.94
2023-03-21T12:09:53.022Z,100335.97
2023-03-21T12:13:01.412Z,100334.03
2023-03-21T12:16:04.164Z,100335.34
2023-03-21T12:19:24.966Z,100322.44
2023-03-21T12:22:30.231Z,100319.44
2023-03-21T12:25:36.705Z,100330.88
2023-03-21T12:28:47.002Z,100311.44
2023-03-21T12:31:49.676Z,100319.34
2023-03-21T12:35:10.693Z,100319.25
2023-03-21T12:38:18.125Z,100319.22
2023-03-21T12:41:39.448Z,100308.19
2023-03-21T12:44:45.483Z,100304.78
2023-03-21T12:47:51.778Z,100292.41
2023-03-21T12:50:56.263Z,100293.12
2023-03-21T12:54:13.427Z,100287.13
2023-03-21T12:57:19.057Z,100284.00
2023-03-21T13:00:25.509Z,100284.97
2023-03-21T13:03:40.272Z,100280.16
2023-03-21T13:06:43.437Z,100290.41
2023-03-21T13:09:46.784Z,100288.59
2023-03-21T13:12:49.537Z,100282.03
2023-03-21T13:15:55.420Z,100280.28
2023-03-21T13:19:02.951Z,100271.22
2023-03-21T13:22:07.556Z,100270.50
2023-03-21T13:25:17.700Z,100261.22
2023-03-21T13:28:27.490Z,100264.03
2023-03-21T13:31:33.879Z,100259.72
2023-03-21T13:34:44.739Z,100265.97
2023-03-21T13:37:52.717Z,100264.56
2023-03-21T13:41:01.084Z,100256.78
2023-03-21T13:44:03.393Z,100251.81
2023-03-21T13:47:22.377Z,100260.63
2023-03-21T13:50:26.399Z,100262.66
2023-03-21T13:53:33.015Z,100255.38
2023-03-21T13:56:47.473Z,100247.03
2023-03-21T13:59:50.273Z,100243.75
2023-03-21T14:02:56.180Z,100246.38
2023-03-21T14:05:59.069Z,100246.31
2023-03-21T14:09:02.437Z,100233.87
2023-03-21T14:12:08.220Z,100249.09
2023-03-21T14:15:18.022Z,100228.22
2023-03-21T14:18:34.918Z,100226.13
2023-03-21T14:21:48.280Z,100232.03
2023-03-21T14:24:58.148Z,100221.19
2023-03-21T14:28:01.700Z,100221.44
2023-03-21T14:31:04.745Z,100208.09
2023-03-21T14:34:07.279Z,100204.22
2023-03-21T14:37:11.284Z,100202.25
2023-03-21T14:40:22.571Z,100215.53
2023-03-21T14:43:26.031Z,100211.03
2023-03-21T14:46:28.421Z,100204.44
2023-03-21T14:49:32.993Z,100202.03
2023-03-21T14:52:35.531Z,100197.72
2023-03-21T14:55:42.264Z,100205.69
2023-03-21T14:58:45.651Z,100196.72
2023-03-21T15:01:49.716Z,100207.59
2023-03-21T15:04:53.566Z,100195.09
2023-03-21T15:07:58.365Z,100192.63
2023-03-21T15:11:09.404Z,100201.47
2023-03-21T15:14:14.196Z,100198.44
2023-03-21T15:17:16.723Z,100191.81
2023-03-21T15:20:21.969Z,100194.53
2023-03-21T15:23:30.617Z,100192.50
2023-03-21T15:26:33.305Z,100188.75
2023-03-21T15:29:37.030Z,100190.44
2023-03-21T15:32:39.861Z,100186.13
2023-03-21T15:35:54.140Z,100189.66
2023-03-21T15:38:57.387Z,100186.53
2023-03-21T15:42:20.127Z,100194.91
2023-03-21T15:45:24.751Z,100188.34
2023-03-21T15:48:28.190Z,100194.41
2023-03-21T15:51:31.891Z,100187.56
2023-03-21T15:54:37.080Z,100189.63
2023-03-21T15:57:47.493Z,100192.72
2023-03-21T16:00:54.942Z,100193.63
2023-03-21T16:04:02.155Z,100187.03
2023-03-21T16:07:15.446Z,100193.00
2023-03-21T16:10:28.077Z,100182.87
2023-03-21T16:13:30.356Z,100192.22
2023-03-21T16:16:33.124Z,100192.63
2023-03-21T16:19:35.877Z,100194.56
2023-03-21T16:22:39.700Z,100191.91
2023-03-21T16:25:43.789Z,100201.09
2023-03-21T16:28:46.528Z,100203.22
2023-03-21T16:31:50.411Z,100204.44
2023-03-21T16:34:53.785Z,100202.50
2023-03-21T16:37:56.157Z,100204.62
2023-03-21T16:41:00.896Z,100200.44
2023-03-21T16:44:03.196Z,100212.53
2023-03-21T16:47:16.809Z,100213.03
2023-03-21T16:50:31.659Z,100213.59
2023-03-21T16:53:34.383Z,100215.25
2023-03-21T16:56:38.983Z,100220.94
2023-03-21T16:59:42.830Z,100226.56
2023-03-21T17:02:47.851Z,100226.19
2023-03-21T17:05:50.559Z,100228.75
2023-03-21T17:08:53.457Z,100230.13
2023-03-21T17:11:56.294Z,100238.44
2023-03-21T17:14:58.607Z,100235.53
2023-03-21T17:18:01.485Z,100236.91
2023-03-21T17:21:10.651Z,100241.72
2023-03-21T17:24:13.758Z,100237.59
2023-03-21T17:27:18.308Z,100241.97
2023-03-21T17:30:31.943Z,100246.56
2023-03-21T17:33:34.319Z,100238.62
2023-03-21T17:36:38.083Z,100242.16
2023-03-21T17:39:42.918Z,100241.81
2023-03-21T17:42:46.363Z,100251.78
2023-03-21T17:45:48.650Z,100244.28
2023-03-21T17:48:51.502Z,100247.84
2023-03-21T17:51:54.449Z,100250.84
2023-03-21T17:54:57.070Z,100247.25
2023-03-21T17:57:59.652Z,100250.13
2023-03-21T18:01:02.322Z,100258.25
2023-03-21T18:04:05.475Z,100265.59
2023-03-21T18:07:13.129Z,100269.81
2023-03-21T18:10:18.988Z,100265.59
2023-03-21T18:13:21.434Z,100262.62
2023-03-21T18:16:25.697Z,100264.88
2023-03-21T18:19:28.319Z,100277.28
2023-03-21T18:22:31.503Z,100274.28
2023-03-21T18:25:33.859Z,100278.00
2023-03-21T18:28:41.342Z,100275.59
2023-03-21T18:31:51.586Z,100282.06
2023-03-21T18:35:00.488Z,100280.28
2023-03-21T18:38:03.329Z,100279.53
2023-03-21T18:41:07.653Z,100286.19
2023-03-21T18:44:17.506Z,100288.25
2023-03-21T18:47:27.872Z,100292.81
2023-03-21T18:50:31.017Z,100286.28
2023-03-21T18:53:33.647Z,100292.28
2023-03-21T18:57:27.427Z,100287.97
2023-03-21T19:00:01.100Z,100289.62
2023-03-21T19:03:18.702Z,100287.19
2023-03-21T19:06:24.275Z,100290.75
2023-03-21T19:09:30.927Z,100291.63
2023-03-21T19:12:34.202Z,100297.38
2023-03-21T19:15:36.765Z,100295.84
2023-03-21T19:18:53.962Z,100294.09
2023-03-21T19:21:59.258Z,100296.88
2023-03-21T19:25:01.932Z,100293.53
2023-03-21T19:28:04.641Z,100298.31
2023-03-21T19:31:08.411Z,100305.81
2023-03-21T19:34:11.253Z,100298.00
2023-03-21T19:37:13.862Z,100308.97
2023-03-21T19:40:16.494Z,100311.13
2023-03-21T19:43:33.056Z,100308.47
2023-03-21T19:46:36.021Z,100310.25
2023-03-21T19:50:15.819Z,100311.59
2023-03-21T19:53:03.325Z,100316.75
2023-03-21T19:56:19.628Z,100322.25
2023-03-21T19:59:22.971Z,100321.38
2023-03-21T20:02:35.655Z,100332.19
2023-03-21T20:05:39.514Z,100323.81
2023-03-21T20:12:05.716Z,100330.72
2023-03-21T20:15:17.219Z,100334.84
2023-03-21T20:18:24.058Z,100331.50
2023-03-21T20:21:32.455Z,100328.69
2023-03-21T20:24:38.579Z,100336.91
2023-03-21T20:27:43.392Z,100335.00
2023-03-21T20:30:51.375Z,100335.78
2023-03-21T20:33:53.987Z,100339.09
2023-03-21T20:36:58.153Z,100333.53
2023-03-21T20:40:00.850Z,100337.88
2023-03-21T20:43:33.448Z,100344.00
2023-03-21T20:46:28.403Z,100343.62
2023-03-21T20:49:31.548Z,100348.75
2023-03-21T20:53:00.809Z,100341.38
2023-03-21T20:55:57.651Z,100343.41
2023-03-21T20:59:15.250Z,100349.09
2023-03-21T21:02:18.273Z,100345.44
2023-03-21T21:05:31.493Z,100347.97
2023-03-21T21:08:36.495Z,100357.44
2023-03-21T21:15:02.122Z,100358.16
2023-03-21T21:18:07.452Z,100361.59
2023-03-21T21:21:10.668Z,100358.53
2023-03-21T21:24:14.562Z,100355.94
2023-03-21T21:27:17.405Z,100351.75
2023-03-21T21:30:19.744Z,100358.59
2023-03-21T21:33:22.581Z,100355.41
2023-03-21T21:36:25.006Z,100349.19
2023-03-21T21:39:27.648Z,100353.97
2023-03-21T21:42:29.982Z,100356.28
2023-03-21T21:45:32.596Z,100352.75
2023-03-21T21:48:35.050Z,100363.03
2023-03-21T21:51:38.154Z,100365.50
2023-03-21T21:55:02.166Z,100357.59
2023-03-21T21:58:08.422Z,100365.16
2023-03-21T22:01:10.822Z,100367.91
2023-03-21T22:04:14.585Z,100368.34
2023-03-21T22:07:17.002Z,100371.22
2023-03-21T22:10:20.731Z,100378.50
2023-03-21T22:13:23.255Z,100387.38
2023-03-21T22:16:26.250Z,100403.66
2023-03-21T22:19:28.609Z,100416.34
2023-03-21T22:22:32.175Z,100424.94
2023-03-21T22:25:34.466Z,100428.47
2023-03-21T22:28:40.529Z,100428.34
2023-03-21T22:31:44.189Z,100423.63
2023-03-21T22:34:46.786Z,100420.31
2023-03-21T22:37:49.082Z,100423.56
2023-03-21T22:40:54.826Z,100413.25
2023-03-21T22:43:57.207Z,100416.75
2023-03-21T22:47:00.283Z,100407.78
2023-03-21T22:50:02.576Z,100409.75
2023-03-21T22:53:05.282Z,100416.31
2023-03-21T22:56:08.128Z,100416.78
2023-03-21T22:59:11.289Z,100405.97
2023-03-21T23:02:14.416Z,100414.97
2023-03-21T23:05:17.203Z,100406.28
2023-03-21T23:08:19.566Z,100401.31
2023-03-21T23:11:22.281Z,100405.06
2023-03-21T23:14:24.611Z,100408.81
2023-03-21T23:17:27.218Z,100404.75
2023-03-21T23:20:29.503Z,100402.38
2023-03-21T23:23:36.632Z,100409.41
2023-03-21T23:26:39.197Z,100399.75
2023-03-21T23:29:43.871Z,100402.44
2023-03-21T23:32:47.008Z,100406.03
2023-03-21T23:35:49.731Z,100411.31
2023-03-21T23:38:52.732Z,100408.03
2023-03-21T23:41:55.561Z,100403.81
2023-03-21T23:44:57.865Z,100408.94
2023-03-21T23:48:00.834Z,100407.91
2023-03-21T23:51:03.415Z,100413.94
2023-03-21T23:54:06.100Z,100413.94
2023-03-21T23:57:08.581Z,100416.78
